Time;durP1;ratioP1;P1;durP2;ratioP2;P2;SDS_P1;SDS_P2;PMS_P1;PMS_P2;Temp;Humidity;BMP_temperature;BMP_pressure;BME280_temperature;BME280_humidity;BME280_pressure;Samples;Min_cycle;Max_cycle;Signal;HPM_P1;HPM_P2
2022/04/26 03:38:11;;;;;;;0.00;0.00;;;;;;;10.19;54.30;101447.59;7364296;19;20017;-62
2022/04/26 03:40:36;;;;;;;0.00;0.00;;;;;;;10.12;54.63;101452.03;7354593;19;20006;-63
2022/04/26 03:43:02;;;;;;;0.00;0.00;;;;;;;10.07;54.33;101457.28;7352661;19;20343;-62
2022/04/26 03:45:28;;;;;;;0.00;0.00;;;;;;;10.01;54.29;101454.72;7358060;19;20016;-61
2022/04/26 03:47:53;;;;;;;0.08;0.08;;;;;;;9.96;54.64;101455.66;7355971;19;20031;-62
2022/04/26 03:50:18;;;;;;;0.00;0.00;;;;;;;9.90;54.71;101453.97;7355338;19;20110;-63
2022/04/26 03:52:44;;;;;;;0.00;0.00;;;;;;;9.84;55.22;101456.63;7357568;19;20620;-62
2022/04/26 03:55:09;;;;;;;0.00;0.00;;;;;;;9.78;55.64;101451.44;7361565;19;20010;-62
2022/04/26 03:57:35;;;;;;;0.00;0.00;;;;;;;9.57;55.21;101428.97;7360295;19;20011;-62
2022/04/26 04:00:00;;;;;;;0.00;0.00;;;;;;;9.68;55.46;101449.75;7361965;19;20010;-62
2022/04/26 04:02:25;;;;;;;0.00;0.00;;;;;;;9.64;55.64;101448.09;7360868;19;20018;-59
2022/04/26 04:04:51;;;;;;;0.00;0.00;;;;;;;9.60;55.66;101452.44;7357506;19;20606;-62
2022/04/26 04:07:16;;;;;;;0.00;0.00;;;;;;;9.54;54.90;101448.13;7360853;19;20018;-62
2022/04/26 04:09:42;;;;;;;0.00;0.00;;;;;;;9.51;55.11;101444.66;7356110;19;20458;-62
2022/04/26 04:12:08;;;;;;;0.00;0.00;;;;;;;9.45;54.52;101453.41;7362581;19;20019;-62
2022/04/26 04:14:33;;;;;;;0.00;0.00;;;;;;;9.41;55.20;101446.47;7351723;19;20097;-63
2022/04/26 04:16:59;;;;;;;0.00;0.00;;;;;;;9.36;54.85;101458.66;7350553;19;20070;-63
2022/04/26 04:19:27;;;;;;;0.00;0.00;;;;;;;9.32;54.99;101451.72;7360867;19;20006;-62
2022/04/26 04:21:53;;;;;;;0.00;0.00;;;;;;;9.28;56.05;101452.66;7359773;19;19998;-63
2022/04/26 04:24:19;;;;;;;0.00;0.00;;;;;;;9.24;55.32;101450.91;7353295;19;20036;-63
2022/04/26 04:26:45;;;;;;;0.00;0.00;;;;;;;9.17;54.81;101451.81;7361610;19;20733;-62
2022/04/26 04:29:11;;;;;;;0.00;0.00;;;;;;;9.10;54.78;101449.25;7361655;19;20003;-61
2022/04/26 04:31:37;;;;;;;0.00;0.00;;;;;;;9.11;54.66;101457.91;7350497;19;20007;-62
2022/04/26 04:34:03;;;;;;;0.10;0.10;;;;;;;9.04;55.00;101451.00;7349681;19;20013;-62
2022/04/26 04:36:28;;;;;;;0.00;0.00;;;;;;;9.04;55.11;101462.28;7360431;19;20462;-62
2022/04/26 04:38:57;;;;;;;0.00;0.00;;;;;;;8.91;55.00;101444.09;7359424;19;20014;-62
2022/04/26 04:41:23;;;;;;;0.00;0.00;;;;;;;8.97;55.63;101465.81;7347467;19;20025;-62
2022/04/26 04:43:49;;;;;;;0.00;0.00;;;;;;;8.84;55.53;101441.53;7355233;19;20015;-63
2022/04/26 04:46:14;;;;;;;0.00;0.00;;;;;;;8.92;56.56;101458.84;7354478;19;20450;-62
2022/04/26 04:48:39;;;;;;;0.00;0.00;;;;;;;8.88;56.68;101459.78;7361104;19;20031;-63
2022/04/26 04:51:05;;;;;;;0.00;0.00;;;;;;;8.83;56.82;101451.97;7351195;19;20633;-62
2022/04/26 04:53:30;;;;;;;0.00;0.00;;;;;;;8.83;56.33;101457.19;7360827;19;20018;-63
2022/04/26 04:55:56;;;;;;;0.00;0.00;;;;;;;8.81;56.40;101458.91;7361716;19;20020;-64
2022/04/26 04:58:21;;;;;;;0.00;0.00;;;;;;;8.76;56.20;101458.03;7359064;19;20019;-62
2022/04/26 05:00:46;;;;;;;0.00;0.00;;;;;;;8.77;56.25;101459.81;7358980;19;20800;-63
2022/04/26 05:03:12;;;;;;;0.03;0.03;;;;;;;8.76;56.26;101466.72;7348773;19;20018;-62
2022/04/26 05:05:37;;;;;;;0.00;0.00;;;;;;;8.75;56.14;101466.75;7354209;19;20022;-62
2022/04/26 05:08:03;;;;;;;0.00;0.00;;;;;;;8.75;56.48;101469.34;7347793;19;20015;-62
2022/04/26 05:10:32;;;;;;;0.00;0.00;;;;;;;8.74;56.58;101472.81;7335700;19;20498;-61
2022/04/26 05:12:57;;;;;;;0.00;0.00;;;;;;;8.74;57.29;101478.03;7354223;19;20343;-62
2022/04/26 05:15:25;;;;;;;0.00;0.00;;;;;;;8.73;57.39;101478.91;7347070;19;20052;-60
2022/04/26 05:17:51;;;;;;;0.00;0.00;;;;;;;8.73;57.22;101486.72;7357380;19;20030;-62
2022/04/26 05:20:19;;;;;;;0.00;0.00;;;;;;;8.73;57.25;101481.50;7359624;19;20462;-63
2022/04/26 05:25:29;;;;;;;0.00;0.00;;;;;;;8.73;57.76;101497.13;7351757;19;20021;-63
2022/04/26 05:27:54;;;;;;;0.00;0.00;;;;;;;8.74;57.49;101498.88;7359267;19;20011;-61
2022/04/26 05:30:19;;;;;;;0.00;0.00;;;;;;;8.62;57.34;101483.25;7356109;19;20816;-63
2022/04/26 05:32:45;;;;;;;0.00;0.00;;;;;;;8.74;57.71;101498.88;7355809;19;20015;-62
2022/04/26 05:35:11;;;;;;;0.00;0.00;;;;;;;8.72;57.86;101500.63;7358872;19;20018;-64
2022/04/26 05:37:37;;;;;;;0.00;0.00;;;;;;;8.74;57.82;101504.06;7360188;19;20037;-62
2022/04/26 05:40:03;;;;;;;0.00;0.00;;;;;;;8.75;57.73;101505.81;7358761;19;20010;-62
2022/04/26 05:42:29;;;;;;;0.00;0.00;;;;;;;8.73;57.85;101503.22;7355801;19;20556;-63
2022/04/26 05:44:56;;;;;;;0.00;0.00;;;;;;;8.66;58.04;101492.78;7355153;19;20011;-63
2022/04/26 05:47:21;;;;;;;0.00;0.00;;;;;;;8.80;58.24;101511.88;7357684;19;20425;-60
2022/04/26 05:49:47;;;;;;;0.00;0.00;;;;;;;8.81;58.26;101521.41;7350439;19;20014;-62
2022/04/26 05:52:12;;;;;;;0.00;0.00;;;;;;;8.78;58.38;101516.22;7358651;19;20026;-61
2022/04/26 05:54:38;;;;;;;0.00;0.00;;;;;;;8.83;58.39;101519.69;7354557;19;20011;-62
2022/04/26 05:57:04;;;;;;;0.00;0.00;;;;;;;8.79;58.43;101513.59;7354530;19;20007;-59
2022/04/26 05:59:29;;;;;;;0.00;0.00;;;;;;;8.78;58.18;101511.00;7356920;19;20470;-62
2022/04/26 06:01:55;;;;;;;0.00;0.00;;;;;;;8.89;58.27;101524.00;7358074;19;20009;-62
2022/04/26 06:04:20;;;;;;;0.00;0.00;;;;;;;8.88;58.14;101525.75;7360178;19;20011;-62
2022/04/26 06:06:45;;;;;;;0.00;0.00;;;;;;;8.92;58.02;101530.09;7357468;19;20010;-62
2022/04/26 06:09:14;;;;;;;0.00;0.00;;;;;;;8.91;58.71;101525.72;7359482;19;20012;-62
2022/04/26 06:11:40;;;;;;;0.00;0.00;;;;;;;8.84;58.44;101524.88;7362695;19;20011;-62
2022/04/26 06:14:05;;;;;;;0.00;0.00;;;;;;;8.99;58.84;101552.63;7355790;19;20022;-63
2022/04/26 06:16:31;;;;;;;0.00;0.00;;;;;;;9.02;59.06;101552.63;7364280;19;20042;-63
2022/04/26 06:18:56;;;;;;;0.00;0.00;;;;;;;9.05;59.27;101547.41;7358214;19;20011;-62
2022/04/26 06:21:21;;;;;;;0.00;0.00;;;;;;;9.09;59.35;101549.13;7358856;19;20653;-64
2022/04/26 06:23:47;;;;;;;0.00;0.00;;;;;;;9.14;59.33;101550.84;7364937;19;20026;-63
2022/04/26 06:26:13;;;;;;;0.00;0.00;;;;;;;9.18;59.57;101550.84;7359719;19;20014;-63
2022/04/26 06:28:38;;;;;;;0.00;0.00;;;;;;;9.26;59.35;101550.81;7357810;19;20014;-61
2022/04/26 06:31:04;;;;;;;0.00;0.00;;;;;;;9.29;59.41;101551.66;7363869;19;20937;-62
2022/04/26 06:33:29;;;;;;;0.00;0.00;;;;;;;9.33;59.19;101542.97;7361119;19;20020;-62
2022/04/26 06:35:55;;;;;;;0.00;0.00;;;;;;;9.48;58.36;101547.25;7362085;19;20104;-63
2022/04/26 06:38:23;;;;;;;0.00;0.00;;;;;;;9.59;58.56;101555.88;7361032;19;20022;-63
2022/04/26 06:40:49;;;;;;;0.00;0.00;;;;;;;9.70;58.23;101548.00;7361744;19;20138;-60
2022/04/26 06:43:14;;;;;;;0.00;0.00;;;;;;;9.79;59.07;101547.09;7350494;19;20030;-63
2022/04/26 06:45:40;;;;;;;0.00;0.00;;;;;;;9.94;59.20;101554.81;7362056;19;20585;-61
2022/04/26 06:48:10;;;;;;;0.00;0.00;;;;;;;10.07;58.94;101552.97;7361345;19;20010;-62
2022/04/26 06:50:37;;;;;;;0.00;0.00;;;;;;;10.19;58.41;101557.22;7362681;19;20018;-62
2022/04/26 06:53:03;;;;;;;0.00;0.00;;;;;;;10.18;58.04;101538.09;7353572;19;20027;-62
2022/04/26 06:55:29;;;;;;;0.00;0.00;;;;;;;10.41;58.76;101560.59;7360007;19;20006;-63
2022/04/26 06:57:54;;;;;;;0.00;0.00;;;;;;;10.52;58.79;101559.63;7359283;19;20082;-62
2022/04/26 07:00:19;;;;;;;0.00;0.00;;;;;;;10.63;59.04;101565.59;7360134;19;20078;-62
2022/04/26 07:02:45;;;;;;;0.00;0.00;;;;;;;10.75;59.08;101563.78;7356600;19;20018;-62
2022/04/26 07:05:11;;;;;;;0.00;0.00;;;;;;;10.73;59.12;101540.25;7363290;19;20006;-63
2022/04/26 07:07:38;;;;;;;0.08;0.08;;;;;;;10.95;58.48;101564.44;7359161;19;20022;-63
2022/04/26 07:10:05;;;;;;;0.00;0.00;;;;;;;11.05;59.22;101567.81;7359220;19;20026;-63
2022/04/26 07:12:30;;;;;;;0.00;0.00;;;;;;;11.04;59.06;101551.25;7360929;19;20026;-63
2022/04/26 07:14:56;;;;;;;0.00;0.00;;;;;;;11.22;58.78;101576.34;7363488;19;20007;-62
2022/04/26 07:17:21;;;;;;;0.00;0.00;;;;;;;11.31;58.74;101572.75;7361267;19;20003;-62
2022/04/26 07:19:47;;;;;;;0.00;0.00;;;;;;;11.32;58.99;101561.41;7361535;19;20420;-62
2022/04/26 07:22:12;;;;;;;0.00;0.00;;;;;;;11.45;60.00;101573.44;7355934;19;20053;-63
2022/04/26 07:24:37;;;;;;;0.00;0.00;;;;;;;11.45;59.38;101562.97;7346274;19;20003;-62
2022/04/26 07:27:03;;;;;;;0.00;0.00;;;;;;;11.59;59.40;101588.97;7360347;19;20002;-62
2022/04/26 07:29:29;;;;;;;0.00;0.00;;;;;;;11.59;59.77;101579.38;7360216;19;20106;-62
2022/04/26 07:31:55;;;;;;;0.00;0.00;;;;;;;11.70;59.92;101589.69;7352256;19;20014;-63
2022/04/26 07:34:20;;;;;;;0.00;0.00;;;;;;;11.78;59.37;101587.00;7352114;19;20006;-63
2022/04/26 07:36:53;;;;;;;0.00;0.00;;;;;;;11.85;59.38;101596.50;7349009;19;20003;-63
2022/04/26 07:39:19;;;;;;;0.00;0.00;;;;;;;11.92;59.56;101596.41;7359139;19;20450;-63
2022/04/26 07:41:46;;;;;;;0.00;0.00;;;;;;;11.96;59.47;101602.44;7349967;19;20027;-63
2022/04/26 07:44:11;;;;;;;0.00;0.00;;;;;;;12.07;59.43;101605.81;7357538;19;19999;-63
2022/04/26 07:46:37;;;;;;;0.00;0.00;;;;;;;12.14;59.48;101598.72;7345233;19;20032;-63
2022/04/26 07:49:05;;;;;;;0.00;0.00;;;;;;;12.27;59.84;101612.50;7358182;19;20038;-62
2022/04/26 07:51:31;;;;;;;0.00;0.00;;;;;;;12.33;60.23;101607.19;7352538;19;20453;-62
2022/04/26 07:53:56;;;;;;;0.00;0.00;;;;;;;12.43;60.44;101611.38;7360209;19;20006;-62
2022/04/26 07:56:22;;;;;;;0.00;0.00;;;;;;;12.50;60.75;101610.38;7360409;19;20006;-63
2022/04/26 07:58:47;;;;;;;0.10;0.10;;;;;;;12.59;60.61;101612.00;7345114;19;20039;-63
2022/04/26 08:01:13;;;;;;;0.00;0.00;;;;;;;12.67;60.65;101617.94;7354076;19;20493;-63
2022/04/26 08:03:38;;;;;;;0.00;0.00;;;;;;;12.75;60.43;101620.47;7359045;19;20081;-63
2022/04/26 08:06:03;;;;;;;0.00;0.00;;;;;;;12.80;60.35;101624.72;7361599;19;20380;-62
2022/04/26 08:08:29;;;;;;;0.05;0.05;;;;;;;12.82;60.43;101616.84;7355263;19;20011;-63
2022/04/26 08:10:54;;;;;;;0.00;0.00;;;;;;;12.92;60.43;101628.88;7359881;19;20018;-62
2022/04/26 08:13:20;;;;;;;0.00;0.00;;;;;;;12.97;60.53;101629.66;7357736;19;20010;-62
2022/04/26 08:15:45;;;;;;;0.00;0.00;;;;;;;13.01;60.42;101628.72;7360283;19;20006;-62
2022/04/26 08:18:11;;;;;;;0.00;0.00;;;;;;;12.98;59.74;101623.56;7359031;19;20007;-63
2022/04/26 08:20:37;;;;;;;0.00;0.00;;;;;;;13.11;60.34;101629.44;7348712;19;20074;-62
2022/04/26 08:23:04;;;;;;;0.10;0.10;;;;;;;13.16;60.08;101627.59;7349141;19;20025;-63
2022/04/26 08:28:14;;;;;;;0.00;0.00;;;;;;;13.28;59.57;101631.75;7346817;19;20464;-63
2022/04/26 08:30:39;;;;;;;0.00;0.00;;;;;;;13.34;59.79;101636.91;7347402;19;20106;-63
2022/04/26 08:33:05;;;;;;;0.00;0.00;;;;;;;13.42;60.11;101640.25;7347504;19;20017;-62
2022/04/26 08:35:31;;;;;;;0.10;0.10;;;;;;;13.48;60.24;101645.34;7360288;19;20375;-62
2022/04/26 08:37:56;;;;;;;0.00;0.00;;;;;;;13.57;59.59;101641.69;7359518;19;20034;-61
2022/04/26 08:40:22;;;;;;;0.00;0.00;;;;;;;13.62;59.31;101643.34;7360860;19;20006;-63
2022/04/26 08:42:51;;;;;;;0.00;0.00;;;;;;;13.70;59.45;101651.94;7352912;19;20002;-63
2022/04/26 08:45:19;;;;;;;0.00;0.00;;;;;;;13.80;59.14;101651.75;7361621;19;19999;-62
2022/04/26 08:53:20;;;;;;;0.00;0.00;;;;;;;14.10;58.80;101663.34;7353177;19;20495;-63
2022/04/26 08:55:47;;;;;;;0.00;0.00;;;;;;;14.17;58.47;101662.31;7361367;19;20006;-63
2022/04/26 08:58:14;;;;;;;0.00;0.00;;;;;;;14.23;58.61;101657.78;7355455;19;20014;-62
2022/04/26 09:01:01;;;;;;;0.03;0.03;;;;;;;14.35;58.37;101668.94;7361031;19;20006;-63
2022/04/26 09:03:30;;;;;;;0.00;0.00;;;;;;;14.46;58.09;101674.78;7358061;19;20010;-62
2022/04/26 09:06:13;;;;;;;0.10;0.10;;;;;;;14.58;56.48;101665.78;7352683;19;20027;-63
2022/04/26 09:08:40;;;;;;;0.00;0.00;;;;;;;14.45;57.71;101644.16;7349077;19;20009;-63
2022/04/26 09:11:27;;;;;;;0.00;0.00;;;;;;;14.64;56.36;101661.22;7352985;19;20808;-62
2022/04/26 09:13:54;;;;;;;0.00;0.00;;;;;;;14.71;57.46;101665.47;7352994;19;20054;-61
2022/04/26 09:16:21;;;;;;;0.00;0.00;;;;;;;14.79;57.32;101663.47;7360602;19;20022;-61
2022/04/26 09:18:54;;;;;;;0.00;0.00;;;;;;;14.89;56.16;101664.13;7341776;19;19999;-63
2022/04/26 09:21:21;;;;;;;0.00;0.00;;;;;;;14.89;56.79;101658.84;7357420;19;20014;-63
2022/04/26 09:23:47;;;;;;;0.05;0.05;;;;;;;14.96;56.51;101665.72;7342648;19;20018;-60
2022/04/26 09:26:17;;;;;;;0.00;0.00;;;;;;;15.01;56.14;101670.84;7353729;19;20006;-63
2022/04/26 09:28:45;;;;;;;0.00;0.00;;;;;;;15.06;56.74;101676.88;7357743;19;20010;-64
2022/04/26 09:31:18;;;;;;;;;;;;;;;15.32;55.07;101684.06;7353515;19;20006;-61
2022/04/26 09:33:47;;;;;;;0.00;0.00;;;;;;;15.51;56.51;101681.78;7353200;19;19919;-63
2022/04/26 09:36:14;;;;;;;0.00;0.00;;;;;;;15.81;55.48;101696.78;7356348;19;20109;-61
2022/04/26 09:38:41;;;;;;;0.10;0.10;;;;;;;15.90;55.11;101673.69;7345737;19;21649;-63
2022/04/26 09:41:10;;;;;;;0.00;0.00;;;;;;;16.32;54.81;101703.16;7361502;19;20328;-63
2022/04/26 09:43:37;;;;;;;0.10;0.10;;;;;;;16.56;55.14;101698.91;7357872;19;20694;-63
2022/04/26 09:46:04;;;;;;;0.00;0.00;;;;;;;16.90;54.46;101703.13;7364884;19;20011;-63
2022/04/26 09:48:38;;;;;;;0.00;0.00;;;;;;;17.29;54.50;101699.16;7355768;19;20011;-64
2022/04/26 09:51:05;;;;;;;0.00;0.00;;;;;;;17.68;53.63;101709.22;7363610;19;20757;-63
2022/04/26 09:53:32;;;;;;;0.00;0.00;;;;;;;18.06;52.22;101704.34;7361847;19;20017;-64
2022/04/26 09:55:58;;;;;;;;;;;;;;;18.58;52.91;101707.59;7366050;19;20102;-64
2022/04/26 09:58:26;;;;;;;0.00;0.00;;;;;;;18.81;51.34;101704.91;7358914;19;20775;-63
2022/04/26 10:00:54;;;;;;;0.00;0.00;;;;;;;19.19;50.33;101699.78;7362638;19;20026;-61
2022/04/26 10:03:40;;;;;;;0.00;0.00;;;;;;;19.74;50.75;101708.00;7364376;19;20818;-64
2022/04/26 10:06:08;;;;;;;0.00;0.00;;;;;;;19.83;47.81;101685.53;7350177;19;20108;-63
2022/04/26 10:08:38;;;;;;;;;;;;;;;20.49;50.31;101717.81;7364811;19;20041;-63
2022/04/26 10:11:04;;;;;;;0.10;0.10;;;;;;;20.55;46.51;101690.13;7349190;19;19939;-63
2022/04/26 10:13:32;;;;;;;0.00;0.00;;;;;;;21.00;46.23;101716.19;7352655;19;20006;-64
2022/04/26 10:16:24;;;;;;;0.00;0.00;;;;;;;21.46;47.26;101717.38;7353134;19;19998;-63
2022/04/26 10:18:50;;;;;;;0.00;0.00;;;;;;;21.61;44.62;101721.03;7362961;19;20078;-65
2022/04/26 10:21:22;;;;;;;0.05;0.05;;;;;;;21.99;44.77;101720.78;7360873;19;20030;-64
2022/04/26 10:23:50;;;;;;;0.00;0.00;;;;;;;22.24;44.02;101723.84;7360863;19;20006;-65
2022/04/26 10:26:22;;;;;;;0.00;0.00;;;;;;;22.41;43.03;101717.59;7361441;19;20011;-64
2022/04/26 10:29:16;;;;;;;0.10;0.10;;;;;;;22.78;44.44;101719.00;7362421;19;20038;-64
2022/04/26 10:31:47;;;;;;;0.00;0.00;;;;;;;22.83;41.87;101721.41;7251346;19;2004421;-62
2022/04/26 10:34:29;;;;;;;0.00;0.00;;;;;;;23.09;42.73;101725.25;7364583;19;20014;-63
2022/04/26 10:37:06;;;;;;;0.10;0.10;;;;;;;23.24;41.66;101724.34;7364454;19;20596;-64
2022/04/26 10:39:38;;;;;;;0.00;0.00;;;;;;;23.45;41.91;101716.84;7362186;19;20856;-65
2022/04/26 10:42:26;;;;;;;0.03;0.03;;;;;;;23.65;42.27;101728.16;7354163;19;20006;-62
2022/04/26 10:44:57;;;;;;;0.00;0.00;;;;;;;23.59;40.98;101721.34;7360094;19;20003;-64
2022/04/26 10:47:24;;;;;;;0.00;0.00;;;;;;;23.51;39.26;101715.63;7358155;19;20007;-64
2022/04/26 10:49:52;;;;;;;0.00;0.00;;;;;;;23.52;39.56;101723.56;7353203;19;20010;-64
2022/04/26 10:52:23;;;;;;;;;;;;;;;23.70;42.56;101720.72;7358321;19;20090;-65
2022/04/26 10:54:51;;;;;;;0.00;0.00;;;;;;;23.54;39.68;101726.97;7361231;19;19938;-65
2022/04/26 10:57:21;;;;;;;0.00;0.00;;;;;;;23.62;39.45;101728.28;7363081;19;20459;-63
2022/04/26 10:59:48;;;;;;;0.10;0.10;;;;;;;23.68;39.22;101734.16;7365578;19;20010;-62
2022/04/26 11:02:16;;;;;;;0.00;0.00;;;;;;;23.71;38.69;101736.63;7366117;19;20272;-64
2022/04/26 11:04:42;;;;;;;0.00;0.00;;;;;;;23.67;38.28;101742.25;7357759;19;20019;-64
2022/04/26 11:07:11;;;;;;;0.00;0.00;;;;;;;23.65;38.71;101741.50;7362569;19;20006;-64
2022/04/26 11:09:42;;;;;;;0.00;0.00;;;;;;;23.47;38.47;101741.63;7344566;19;20010;-63
2022/04/26 11:12:08;;;;;;;0.00;0.00;;;;;;;23.28;38.07;101735.69;7364913;19;20014;-64
2022/04/26 11:14:40;;;;;;;0.00;0.00;;;;;;;23.33;38.84;101749.59;7358344;19;20006;-65
2022/04/26 11:17:06;;;;;;;0.10;0.10;;;;;;;23.15;38.36;101753.34;7365099;19;20496;-63
2022/04/26 11:19:36;;;;;;;0.00;0.00;;;;;;;22.89;38.05;101734.41;7352921;19;20134;-62
2022/04/26 11:22:04;;;;;;;0.00;0.00;;;;;;;22.85;38.53;101759.47;7365342;19;20015;-63
2022/04/26 11:29:58;;;;;;;0.00;0.00;;;;;;;22.21;39.36;101769.25;7345202;19;20017;-63
2022/04/26 11:32:35;;;;;;;0.00;0.00;;;;;;;22.19;39.53;101772.94;7363205;19;20010;-63
2022/04/26 11:35:01;;;;;;;0.00;0.00;;;;;;;22.01;39.45;101775.63;7359075;19;20011;-63
2022/04/26 11:37:27;;;;;;;0.03;0.03;;;;;;;21.91;39.49;101773.53;7356499;19;21071;-63
2022/04/26 11:39:53;;;;;;;0.00;0.00;;;;;;;21.79;38.96;101777.69;7362660;19;20047;-63
2022/04/26 11:42:20;;;;;;;0.00;0.00;;;;;;;21.76;39.11;101776.06;7360837;19;20018;-64
2022/04/26 11:44:59;;;;;;;0.00;0.00;;;;;;;21.79;40.16;101780.34;7362234;19;20044;-62
2022/04/26 11:47:48;;;;;;;0.00;0.00;;;;;;;21.75;40.21;101786.78;7360470;19;20875;-63
2022/04/26 11:50:17;;;;;;;0.00;0.00;;;;;;;21.69;39.25;101781.75;7362745;19;20018;-63
2022/04/26 11:52:44;;;;;;;0.00;0.00;;;;;;;21.63;39.18;101782.09;7358949;19;20038;-63
2022/04/26 11:55:26;;;;;;;0.00;0.00;;;;;;;21.66;40.15;101787.25;7361246;19;20379;-65
2022/04/26 11:57:52;;;;;;;0.00;0.00;;;;;;;21.53;39.25;101788.81;7364926;19;20463;-61
2022/04/26 12:00:21;;;;;;;0.00;0.00;;;;;;;21.52;38.72;101789.75;7363239;19;20026;-62
2022/04/26 12:02:48;;;;;;;0.10;0.10;;;;;;;21.45;38.88;101795.41;7361106;19;20043;-63
2022/04/26 12:05:18;;;;;;;0.00;0.00;;;;;;;21.46;38.49;101783.81;7360998;19;20029;-64
2022/04/26 12:07:44;;;;;;;0.00;0.00;;;;;;;21.46;38.55;101780.31;7354615;19;20011;-64
2022/04/26 12:10:29;;;;;;;0.08;0.08;;;;;;;21.57;39.03;101787.72;7358326;19;21277;-64
2022/04/26 12:12:56;;;;;;;0.00;0.00;;;;;;;21.50;37.83;101793.38;7363363;19;21223;-63
2022/04/26 12:15:26;;;;;;;0.10;0.10;;;;;;;21.46;38.19;101785.63;7357827;19;20014;-63
2022/04/26 12:18:21;;;;;;;0.00;0.00;;;;;;;21.52;38.82;101795.06;7357296;19;20082;-62
2022/04/26 12:20:59;;;;;;;0.10;0.10;;;;;;;21.50;38.08;101801.34;7356031;19;20010;-63
2022/04/26 12:23:26;;;;;;;0.10;0.10;;;;;;;21.42;38.18;101790.22;7359596;19;20012;-63
2022/04/26 12:25:53;;;;;;;0.00;0.00;;;;;;;21.47;38.31;101801.47;7353491;19;20110;-63
2022/04/26 12:28:18;;;;;;;0.10;0.10;;;;;;;21.48;37.72;101800.53;7360197;19;20372;-63
2022/04/26 12:30:44;;;;;;;0.00;0.00;;;;;;;21.49;37.71;101806.72;7355102;19;20023;-64
2022/04/26 12:33:10;;;;;;;0.00;0.00;;;;;;;21.50;37.56;101806.66;7353948;19;20010;-64
2022/04/26 12:35:35;;;;;;;0.00;0.00;;;;;;;21.47;37.87;101804.13;7362375;19;20569;-63
2022/04/26 12:38:06;;;;;;;0.00;0.00;;;;;;;21.45;38.52;101806.03;7359207;19;20015;-63
2022/04/26 12:40:31;;;;;;;0.00;0.00;;;;;;;21.39;39.15;101810.78;7361159;19;20026;-64
2022/04/26 12:42:57;;;;;;;0.10;0.10;;;;;;;21.41;37.51;101809.78;7356428;19;20086;-63
2022/04/26 12:45:23;;;;;;;0.00;0.00;;;;;;;21.46;38.56;101813.06;7341697;19;20042;-63
2022/04/26 12:50:53;;;;;;;0.00;0.00;;;;;;;21.60;37.34;101815.03;7251777;19;2004558;-64
2022/04/26 12:53:28;;;;;;;0.00;0.00;;;;;;;21.72;38.41;101809.06;7354695;19;20011;-64
2022/04/26 12:56:04;;;;;;;0.00;0.00;;;;;;;21.70;38.69;101812.75;7357689;19;20680;-62
2022/04/26 12:58:37;;;;;;;0.00;0.00;;;;;;;21.82;38.42;101804.13;7357187;19;20011;-63
2022/04/26 13:01:06;;;;;;;0.00;0.00;;;;;;;21.93;38.89;101803.56;7359591;19;20070;-63
2022/04/26 13:03:33;;;;;;;0.00;0.00;;;;;;;22.14;37.89;101809.56;7357558;19;20010;-63
2022/04/26 13:06:07;;;;;;;0.10;0.10;;;;;;;22.46;37.97;101811.38;7361538;19;20548;-64
2022/04/26 13:08:33;;;;;;;0.00;0.00;;;;;;;22.73;37.34;101808.97;7352256;19;20006;-64
2022/04/26 13:10:59;;;;;;;0.00;0.00;;;;;;;23.09;36.78;101809.66;7351132;19;22437;-64
2022/04/26 13:13:27;;;;;;;0.00;0.00;;;;;;;23.41;35.12;101802.44;7358663;19;20042;-64
2022/04/26 13:15:53;;;;;;;0.00;0.00;;;;;;;23.69;34.57;101809.69;7348214;19;20350;-62
2022/04/26 13:18:18;;;;;;;0.00;0.00;;;;;;;23.83;34.78;101807.06;7358978;19;20006;-64
2022/04/26 13:20:45;;;;;;;0.00;0.00;;;;;;;23.94;34.29;101807.25;7354951;19;20010;-63
2022/04/26 13:23:11;;;;;;;0.00;0.00;;;;;;;23.99;34.30;101807.81;7358520;19;20007;-64
2022/04/26 13:25:37;;;;;;;0.10;0.10;;;;;;;23.95;34.44;101811.63;7359245;19;20011;-63
2022/04/26 13:28:04;;;;;;;0.10;0.10;;;;;;;23.83;34.19;101790.19;7357255;19;20014;-63
2022/04/26 13:30:29;;;;;;;0.00;0.00;;;;;;;23.93;34.70;101804.69;7351602;19;20082;-64
2022/04/26 13:32:55;;;;;;;0.08;0.08;;;;;;;23.98;34.36;101802.59;7361321;19;20011;-61
2022/04/26 13:35:21;;;;;;;0.00;0.00;;;;;;;24.05;34.13;101802.09;7360086;19;20011;-63
2022/04/26 13:37:47;;;;;;;0.10;0.10;;;;;;;24.08;34.54;101795.75;7353465;19;20090;-64
2022/04/26 13:40:12;;;;;;;0.10;0.10;;;;;;;24.10;34.27;101803.63;7357054;19;20501;-63
2022/04/26 13:42:38;;;;;;;0.10;0.10;;;;;;;24.04;33.48;101791.53;7354937;19;20018;-63
2022/04/26 13:45:04;;;;;;;0.10;0.10;;;;;;;24.07;33.71;101792.19;7352608;19;20007;-62
2022/04/26 13:47:30;;;;;;;0.10;0.10;;;;;;;24.04;33.96;101802.22;7355909;19;20041;-64
2022/04/26 13:49:56;;;;;;;0.00;0.00;;;;;;;24.01;34.05;101800.56;7352550;19;20592;-64
2022/04/26 13:52:22;;;;;;;0.05;0.05;;;;;;;24.00;34.12;101803.34;7359203;19;20030;-64
2022/04/26 13:54:47;;;;;;;0.00;0.00;;;;;;;24.02;33.26;101807.63;7357874;19;20932;-63
2022/04/26 13:57:14;;;;;;;0.10;0.10;;;;;;;24.05;34.01;101802.09;7359592;19;20673;-63
2022/04/26 13:59:40;;;;;;;0.00;0.00;;;;;;;23.99;34.33;101786.47;7354822;19;20021;-62
2022/04/26 14:02:06;;;;;;;0.05;0.05;;;;;;;24.16;33.74;101798.78;7357226;19;20010;-64
2022/04/26 14:04:32;;;;;;;0.00;0.00;;;;;;;24.16;32.23;101801.44;7358499;19;20470;-64
2022/04/26 14:06:58;;;;;;;0.00;0.00;;;;;;;24.17;32.90;101802.28;7357980;19;20367;-64
2022/04/26 14:09:24;;;;;;;0.00;0.00;;;;;;;24.16;33.16;101806.78;7352559;19;20013;-62
2022/04/26 14:11:51;;;;;;;0.08;0.08;;;;;;;24.05;32.11;101796.78;7358475;19;20118;-64
2022/04/26 14:22:32;;;;;;;0.00;0.00;;;;;;;23.91;32.33;101788.75;7357548;19;20013;-61
2022/04/26 14:25:08;;;;;;;0.10;0.10;;;;;;;23.96;32.65;101792.00;7350100;19;20757;-64
2022/04/26 14:27:35;;;;;;;0.00;0.00;;;;;;;23.81;32.08;101784.94;7361679;19;20731;-63
2022/04/26 14:30:02;;;;;;;0.10;0.10;;;;;;;23.84;31.96;101786.56;7365871;19;20039;-61
2022/04/26 14:32:27;;;;;;;0.10;0.10;;;;;;;23.79;32.31;101790.38;7361055;19;20746;-63
2022/04/26 14:34:53;;;;;;;0.10;0.10;;;;;;;23.75;33.31;101793.31;7364582;19;20052;-62
2022/04/26 14:37:19;;;;;;;0.10;0.10;;;;;;;23.70;33.32;101774.91;7366402;19;20021;-63
2022/04/26 14:39:45;;;;;;;0.03;0.03;;;;;;;23.95;33.56;101784.09;7355834;19;20038;-63
2022/04/26 14:42:10;;;;;;;0.10;0.10;;;;;;;24.22;32.66;101793.03;7359757;19;20019;-64
2022/04/26 14:44:37;;;;;;;0.10;0.10;;;;;;;24.45;32.52;101794.31;7363793;19;20007;-63
2022/04/26 14:47:03;;;;;;;0.00;0.00;;;;;;;24.65;31.64;101789.50;7367040;19;20017;-62
2022/04/26 14:49:31;;;;;;;0.00;0.00;;;;;;;24.74;31.73;101791.59;7361078;19;20021;-63
2022/04/26 14:51:57;;;;;;;0.10;0.10;;;;;;;24.72;30.95;101780.13;7361764;19;20034;-63
2022/04/26 14:54:23;;;;;;;0.10;0.10;;;;;;;24.69;30.82;101796.38;7360599;19;20548;-64
2022/04/26 14:56:49;;;;;;;0.10;0.10;;;;;;;24.65;30.41;101784.16;7357652;19;20015;-63
2022/04/26 14:59:16;;;;;;;0.05;0.05;;;;;;;24.68;29.34;101783.94;7363152;19;20038;-64
2022/04/26 15:01:45;;;;;;;0.10;0.10;;;;;;;24.75;29.39;101787.94;7363005;19;20006;-62
2022/04/26 15:04:10;;;;;;;0.00;0.00;;;;;;;24.87;28.88;101787.13;7359662;19;20006;-63
2022/04/26 15:06:36;;;;;;;0.10;0.10;;;;;;;25.04;29.27;101786.00;7353998;19;20034;-63
2022/04/26 15:11:46;;;;;;;0.00;0.00;;;;;;;25.20;29.82;101791.25;7363954;19;20022;-63
2022/04/26 15:16:55;;;;;;;0.03;0.03;;;;;;;25.24;28.38;101796.28;7364862;19;20034;-63
2022/04/26 15:19:20;;;;;;;0.05;0.05;;;;;;;25.23;29.50;101796.38;7362503;19;20006;-64
2022/04/26 15:21:46;;;;;;;0.00;0.00;;;;;;;25.20;29.70;101793.94;7362139;19;20014;-63
2022/04/26 15:24:12;;;;;;;0.10;0.10;;;;;;;25.10;28.81;101791.84;7362102;19;20762;-64
2022/04/26 15:26:38;;;;;;;0.10;0.10;;;;;;;25.15;28.69;101801.41;7361794;19;20021;-63
2022/04/26 15:29:05;;;;;;;0.00;0.00;;;;;;;25.14;28.63;101799.66;7362716;19;20062;-64
2022/04/26 15:31:31;;;;;;;0.10;0.10;;;;;;;25.14;29.48;101802.31;7358799;19;20494;-64
2022/04/26 15:33:56;;;;;;;0.00;0.00;;;;;;;25.14;28.97;101802.31;7364645;19;20477;-64
2022/04/26 15:36:22;;;;;;;0.00;0.00;;;;;;;25.14;29.74;101796.97;7364405;19;20013;-62
2022/04/26 15:38:48;;;;;;;0.00;0.00;;;;;;;25.16;29.11;101805.78;7359811;19;20007;-64
2022/04/26 15:41:14;;;;;;;0.10;0.10;;;;;;;25.08;28.64;101809.78;7357777;19;20020;-63